Time;durP1;ratioP1;P1;durP2;ratioP2;P2;SDS_P1;SDS_P2;PMS_P1;PMS_P2;Temp;Humidity;BMP_temperature;BMP_pressure;BME280_temperature;BME280_humidity;BME280_pressure;Samples;Min_cycle;Max_cycle;Signal;HPM_P1;HPM_P2
2021/07/26 00:02:28;;;;;;;8.03;6.57;;;18.30;99.90;17.90;96435.00;;;;5080420;28;20203;-67
2021/07/26 00:05:19;;;;;;;7.27;6.57;;;18.20;99.90;17.60;96436.00;;;;5083638;28;20203;-67
2021/07/26 00:08:08;;;;;;;6.80;5.90;;;18.20;99.90;17.70;96443.00;;;;5076655;28;20230;-68
2021/07/26 00:11:01;;;;;;;7.57;6.60;;;18.10;99.90;17.80;96445.00;;;;5067264;28;20570;-68
2021/07/26 00:13:50;;;;;;;9.27;6.30;;;18.10;99.90;17.90;96440.00;;;;5085540;28;20658;-67
2021/07/26 00:16:39;;;;;;;7.13;6.13;;;18.10;99.90;17.90;96431.00;;;;5072761;28;20231;-68
2021/07/26 00:19:28;;;;;;;6.60;6.00;;;18.10;99.90;17.60;96448.00;;;;5082824;28;20203;-67
2021/07/26 00:22:18;;;;;;;7.03;5.87;;;18.10;99.90;17.50;96449.00;;;;5086777;28;20202;-67
2021/07/26 00:25:09;;;;;;;7.13;6.07;;;18.00;99.90;17.30;96447.00;;;;5071587;28;20207;-70
2021/07/26 00:27:57;;;;;;;9.20;5.80;;;17.90;99.90;17.00;96447.00;;;;5081368;28;20612;-68
2021/07/26 00:30:46;;;;;;;6.07;5.47;;;17.70;99.90;17.00;96448.00;;;;5080964;28;20192;-67
2021/07/26 00:34:20;;;;;;;10.30;6.70;;;17.60;99.90;17.10;96458.00;;;;5081364;28;20245;-68
2021/07/26 00:37:09;;;;;;;6.90;5.77;;;17.50;99.90;17.30;96441.00;;;;5079015;28;20241;-67
2021/07/26 00:40:05;;;;;;;6.67;6.00;;;17.50;99.90;17.30;96441.00;;;;5076462;28;20571;-68
2021/07/26 00:42:55;;;;;;;5.53;5.00;;;17.60;99.90;17.30;96435.00;;;;5070736;28;20200;-67
2021/07/26 00:45:44;;;;;;;6.97;5.47;;;17.60;99.90;17.30;96437.00;;;;5069917;28;20214;-67
2021/07/26 00:48:33;;;;;;;13.23;6.33;;;17.60;99.90;17.40;96428.00;;;;5081190;28;20242;-67
2021/07/26 00:51:23;;;;;;;6.83;5.80;;;17.60;99.90;17.40;96427.00;;;;5071467;28;20286;-67
2021/07/26 00:54:13;;;;;;;7.17;6.27;;;17.60;99.90;17.50;96426.00;;;;5071454;28;20546;-67
2021/07/26 00:57:06;;;;;;;6.60;5.93;;;17.60;99.90;17.60;96444.00;;;;5081663;28;20589;-67
2021/07/26 01:00:01;;;;;;;9.73;6.50;;;17.70;99.90;17.70;96435.00;;;;5070118;28;20210;-67
2021/07/26 01:02:50;;;;;;;8.23;6.17;;;17.80;99.90;17.40;96445.00;;;;5066283;28;20208;-69
2021/07/26 01:05:38;;;;;;;8.87;6.07;;;17.80;99.90;17.40;96445.00;;;;5079283;28;20208;-67
2021/07/26 01:08:27;;;;;;;8.33;6.30;;;17.70;99.90;17.40;96449.00;;;;5085263;28;20212;-68
2021/07/26 01:11:17;;;;;;;8.40;5.60;;;17.70;99.90;17.30;96445.00;;;;5071472;28;20227;-67
2021/07/26 01:14:07;;;;;;;6.77;6.07;;;17.70;99.90;17.30;96448.00;;;;5074873;28;20195;-68
2021/07/26 01:16:56;;;;;;;6.53;5.50;;;17.60;99.90;17.30;96445.00;;;;5074531;28;20236;-68
2021/07/26 01:19:45;;;;;;;7.77;5.87;;;17.70;99.90;16.90;96449.00;;;;5071587;28;20204;-68
2021/07/26 01:22:35;;;;;;;8.40;6.23;;;17.60;99.90;16.90;96445.00;;;;5077613;28;20215;-68
2021/07/26 01:25:24;;;;;;;6.57;5.90;;;17.50;99.90;16.70;96444.00;;;;5075744;28;20812;-66
2021/07/26 01:28:15;;;;;;;8.73;6.23;;;17.30;99.90;16.40;96449.00;;;;5070968;28;20876;-68
2021/07/26 01:31:05;;;;;;;7.37;6.60;;;17.20;99.90;16.50;96452.00;;;;5080160;28;20207;-67
2021/07/26 01:33:54;;;;;;;7.23;6.53;;;17.00;99.90;16.50;96457.00;;;;5071994;28;20951;-68
2021/07/26 01:36:43;;;;;;;7.93;6.23;;;17.00;99.90;16.50;96447.00;;;;5074250;28;20601;-69
2021/07/26 01:39:33;;;;;;;8.57;5.93;;;16.90;99.90;16.50;96452.00;;;;5083290;28;20192;-69
2021/07/26 01:42:22;;;;;;;7.23;6.53;;;17.00;99.90;16.60;96449.00;;;;5072611;28;20200;-69
2021/07/26 01:45:13;;;;;;;7.43;6.27;;;17.00;99.90;16.70;96454.00;;;;5086436;28;20196;-67
2021/07/26 01:48:05;;;;;;;7.47;6.40;;;16.90;99.90;16.70;96463.00;;;;5073487;28;20232;-68
2021/07/26 01:50:58;;;;;;;9.83;7.07;;;17.00;99.90;16.50;96450.00;;;;5078422;28;20583;-67
2021/07/26 01:53:47;;;;;;;7.43;6.30;;;17.00;99.90;16.30;96458.00;;;;5080214;28;20678;-67
2021/07/26 01:56:37;;;;;;;6.73;6.03;;;16.90;99.90;16.20;96447.00;;;;5085649;28;20234;-67
2021/07/26 01:59:26;;;;;;;7.30;6.10;;;16.80;99.90;16.30;96450.00;;;;5075703;28;20775;-67
2021/07/26 02:02:15;;;;;;;8.50;6.93;;;16.70;99.90;16.50;96450.00;;;;5080177;28;20207;-67
2021/07/26 02:05:06;;;;;;;6.63;6.03;;;16.80;99.90;16.60;96443.00;;;;5074006;28;20203;-68
2021/07/26 02:07:55;;;;;;;6.87;6.20;;;16.80;99.90;16.70;96451.00;;;;5087029;28;20219;-68
2021/07/26 02:10:43;;;;;;;6.37;5.77;;;16.90;99.90;16.40;96440.00;;;;5080964;28;20693;-68
2021/07/26 02:13:36;;;;;;;8.67;5.70;;;16.90;99.90;16.40;96446.00;;;;5080895;28;20192;-68
2021/07/26 02:16:25;;;;;;;9.10;6.23;;;16.80;99.90;16.50;96432.00;;;;5083677;28;20263;-67
2021/07/26 02:19:14;;;;;;;10.73;6.63;;;16.80;99.90;16.50;96437.00;;;;5085297;28;20210;-68
2021/07/26 02:22:04;;;;;;;10.77;6.13;;;16.80;99.90;16.40;96455.00;;;;5077349;28;20211;-68
2021/07/26 02:24:53;;;;;;;7.57;6.77;;;16.80;99.90;16.20;96464.00;;;;5072683;28;20199;-68
2021/07/26 02:27:41;;;;;;;7.37;6.57;;;16.80;99.90;15.90;96464.00;;;;5085022;28;20237;-68
2021/07/26 02:30:32;;;;;;;10.40;6.77;;;16.70;99.90;15.80;96456.00;;;;5075150;28;20196;-68
2021/07/26 02:33:20;;;;;;;6.53;5.87;;;16.50;99.90;15.90;96455.00;;;;5076102;28;20195;-68
2021/07/26 02:36:09;;;;;;;10.80;7.10;;;16.40;99.90;15.90;96472.00;;;;5077180;28;20295;-68
2021/07/26 02:38:58;;;;;;;8.97;8.03;;;16.40;99.90;16.00;96454.00;;;;5067971;28;20206;-67
2021/07/26 02:41:47;;;;;;;7.67;6.33;;;16.30;99.90;15.80;96460.00;;;;5077192;28;20195;-68
2021/07/26 02:44:36;;;;;;;7.50;6.70;;;16.40;99.90;15.80;96472.00;;;;5076600;28;20204;-69
2021/07/26 02:47:26;;;;;;;13.27;7.47;;;16.30;99.90;15.80;96468.00;;;;5083102;28;20702;-68
2021/07/26 02:50:15;;;;;;;7.03;6.20;;;16.30;99.90;16.00;96464.00;;;;5080297;28;20195;-68
2021/07/26 02:53:04;;;;;;;7.10;6.40;;;16.20;99.90;16.10;96462.00;;;;5078195;28;20203;-68
2021/07/26 02:55:53;;;;;;;9.17;7.23;;;16.30;99.90;16.10;96469.00;;;;5077056;28;20223;-69
2021/07/26 02:58:42;;;;;;;8.97;6.47;;;16.40;99.90;16.00;96459.00;;;;5074068;28;20708;-68
2021/07/26 03:01:32;;;;;;;8.67;7.13;;;16.40;99.90;16.10;96470.00;;;;5080936;28;20674;-69
2021/07/26 03:04:22;;;;;;;10.23;6.27;;;16.40;99.90;16.30;96474.00;;;;5072289;28;20204;-69
2021/07/26 03:07:11;;;;;;;9.33;6.87;;;16.40;99.90;15.90;96473.00;;;;5072369;28;20219;-68
2021/07/26 03:10:00;;;;;;;5.70;5.20;;;16.40;99.90;15.80;96480.00;;;;5082133;28;20218;-69
2021/07/26 03:12:49;;;;;;;7.27;5.83;;;16.40;99.90;15.50;96477.00;;;;5074266;28;20283;-68
2021/07/26 03:15:38;;;;;;;7.57;6.73;;;16.30;99.90;15.60;96485.00;;;;5085343;28;20199;-68
2021/07/26 03:18:27;;;;;;;7.90;6.80;;;16.20;99.90;15.60;96484.00;;;;5076854;28;20223;-68
2021/07/26 03:21:18;;;;;;;7.83;6.43;;;16.10;99.90;15.70;96491.00;;;;5068551;28;20219;-69
2021/07/26 03:24:07;;;;;;;12.33;6.33;;;16.10;99.90;15.80;96477.00;;;;5079691;28;20678;-69
2021/07/26 03:26:58;;;;;;;7.80;6.97;;;16.10;99.90;16.00;96478.00;;;;5082039;28;20234;-69
2021/07/26 03:29:47;;;;;;;8.30;7.40;;;16.10;99.90;16.00;96479.00;;;;5081138;28;20204;-69
2021/07/26 03:32:36;;;;;;;7.93;6.37;;;16.20;99.90;15.90;96479.00;;;;5075222;28;20196;-69
2021/07/26 03:35:25;;;;;;;7.93;7.03;;;16.20;99.90;16.30;96493.00;;;;5082965;28;20204;-68
2021/07/26 03:38:16;;;;;;;7.80;7.00;;;16.30;99.90;15.90;96490.00;;;;5082356;28;20219;-69
2021/07/26 03:41:05;;;;;;;8.67;7.43;;;16.40;99.90;15.90;96485.00;;;;5072102;28;20207;-68
2021/07/26 03:43:53;;;;;;;11.33;7.17;;;16.30;99.90;16.00;96487.00;;;;5085752;28;20199;-69
2021/07/26 03:46:42;;;;;;;7.50;6.80;;;16.40;99.90;15.80;96502.00;;;;5074279;28;20195;-69
2021/07/26 03:49:31;;;;;;;7.90;7.00;;;16.30;99.90;15.50;96496.00;;;;5073395;28;20196;-67
2021/07/26 03:52:20;;;;;;;8.23;6.83;;;16.20;99.90;15.30;96499.00;;;;5081780;28;20201;-67
2021/07/26 03:55:13;;;;;;;11.17;6.73;;;16.10;99.90;15.10;96494.00;;;;5076344;28;20573;-69
2021/07/26 03:58:03;;;;;;;7.93;6.73;;;15.90;99.90;15.10;96503.00;;;;5067727;28;20229;-67
2021/07/26 04:00:52;;;;;;;11.70;7.10;;;15.80;99.90;15.10;96505.00;;;;5069883;28;20203;-67
2021/07/26 04:03:40;;;;;;;11.23;7.57;;;15.70;99.90;15.30;96507.00;;;;5082920;28;20199;-67
2021/07/26 04:06:29;;;;;;;9.30;7.17;;;15.70;99.90;15.60;96511.00;;;;5082608;28;20202;-68
2021/07/26 04:09:20;;;;;;;9.03;8.00;;;15.70;99.90;15.50;96514.00;;;;5083789;28;20667;-67
2021/07/26 04:12:14;;;;;;;9.70;7.40;;;15.80;99.90;15.20;96502.00;;;;5081973;28;20524;-68
2021/07/26 04:15:08;;;;;;;8.30;7.03;;;15.80;99.90;15.20;96504.00;;;;5066384;28;20207;-67
2021/07/26 04:17:57;;;;;;;9.03;7.50;;;15.70;99.90;15.00;96508.00;;;;5063694;28;20231;-70
2021/07/26 04:20:46;;;;;;;8.63;7.43;;;15.60;99.90;15.40;96514.00;;;;5074816;28;20211;-66
2021/07/26 04:23:34;;;;;;;8.40;7.43;;;15.70;99.90;15.50;96508.00;;;;5080236;28;20199;-67
2021/07/26 04:26:23;;;;;;;10.47;7.37;;;15.70;99.90;15.60;96501.00;;;;5081464;28;20669;-66
2021/07/26 04:29:15;;;;;;;9.33;7.93;;;15.80;99.90;15.80;96515.00;;;;5082073;28;20199;-67
2021/07/26 04:32:04;;;;;;;7.33;6.70;;;15.90;99.90;15.70;96513.00;;;;5085026;28;20734;-67
2021/07/26 04:34:54;;;;;;;8.43;7.63;;;16.00;99.90;15.50;96509.00;;;;5076718;28;20674;-67
2021/07/26 04:37:43;;;;;;;8.73;7.33;;;16.00;99.90;15.40;96520.00;;;;5064464;28;20232;-67
2021/07/26 04:40:32;;;;;;;7.80;6.73;;;16.00;99.90;15.40;96532.00;;;;5064559;28;20448;-67
2021/07/26 04:43:21;;;;;;;9.03;7.57;;;15.90;99.90;15.40;96538.00;;;;5068101;28;20200;-67
2021/07/26 04:46:11;;;;;;;8.70;7.27;;;15.90;99.90;15.70;96535.00;;;;5069121;28;20294;-67
2021/07/26 04:49:00;;;;;;;9.03;7.63;;;15.90;99.90;15.90;96542.00;;;;5086121;28;20209;-67
2021/07/26 04:51:49;;;;;;;12.37;8.00;;;16.00;99.90;16.00;96547.00;;;;5089056;28;20204;-67
2021/07/26 04:54:37;;;;;;;10.63;8.07;;;16.10;99.90;16.10;96553.00;;;;5078823;28;20585;-67
2021/07/26 04:57:26;;;;;;;10.60;7.57;;;16.30;99.90;16.20;96555.00;;;;5067650;28;20639;-67
2021/07/26 05:00:15;;;;;;;11.10;7.03;;;16.40;99.90;16.40;96559.00;;;;5067615;28;20223;-66
2021/07/26 05:03:09;;;;;;;11.37;7.83;;;16.50;99.90;16.40;96551.00;;;;5066799;28;20667;-66
2021/07/26 05:05:58;;;;;;;9.97;8.23;;;16.60;99.90;16.40;96570.00;;;;5069321;28;20202;-69
2021/07/26 05:08:47;;;;;;;9.87;8.13;;;16.70;99.90;16.40;96571.00;;;;5080203;28;20220;-67
2021/07/26 05:11:36;;;;;;;9.43;8.03;;;16.70;99.90;16.70;96572.00;;;;5070005;28;20200;-67
2021/07/26 05:14:25;;;;;;;10.20;8.90;;;16.80;99.90;16.70;96576.00;;;;5068576;28;20214;-67
2021/07/26 05:17:15;;;;;;;12.67;7.93;;;16.90;99.90;16.80;96578.00;;;;5077065;28;20258;-67
2021/07/26 05:20:08;;;;;;;12.07;8.10;;;17.00;99.90;16.80;96570.00;;;;5071556;28;20214;-69
2021/07/26 05:22:57;;;;;;;11.97;8.83;;;17.10;99.90;16.90;96582.00;;;;5081470;28;20420;-67
2021/07/26 05:25:47;;;;;;;11.17;7.43;;;17.20;99.90;17.10;96588.00;;;;5072477;28;20228;-69
2021/07/26 05:28:35;;;;;;;10.10;8.20;;;17.30;99.90;17.30;96590.00;;;;5076964;28;20595;-67
2021/07/26 05:31:24;;;;;;;10.70;8.10;;;17.40;99.90;17.30;96589.00;;;;5069142;28;20200;-69
2021/07/26 05:34:13;;;;;;;10.57;8.50;;;17.50;99.90;17.40;96600.00;;;;5067125;28;20200;-68
2021/07/26 05:37:04;;;;;;;8.70;7.80;;;17.60;99.90;17.60;96593.00;;;;5067855;28;20764;-68
2021/07/26 05:39:52;;;;;;;11.87;8.00;;;17.70;99.90;17.70;96595.00;;;;5068589;28;20211;-68
2021/07/26 05:42:41;;;;;;;12.00;8.77;;;17.80;99.90;17.90;96595.00;;;;5079729;28;20238;-68
2021/07/26 05:45:30;;;;;;;13.37;8.97;;;17.90;99.90;18.00;96594.00;;;;5089251;28;20768;-67
2021/07/26 05:48:19;;;;;;;8.93;8.13;;;18.10;99.90;18.30;96588.00;;;;5069505;28;20228;-68
2021/07/26 05:51:09;;;;;;;12.97;10.20;;;18.30;99.90;18.50;96600.00;;;;5083808;28;20602;-68
2021/07/26 05:54:00;;;;;;;10.43;9.37;;;18.40;99.90;18.60;96596.00;;;;5081167;28;20682;-68
2021/07/26 05:56:50;;;;;;;9.93;8.93;;;18.60;99.90;18.90;96593.00;;;;5068228;28;20598;-68
2021/07/26 05:59:39;;;;;;;9.60;8.23;;;18.80;99.90;19.00;96595.00;;;;5088069;28;20199;-67
2021/07/26 06:02:27;;;;;;;11.30;9.73;;;19.00;99.90;19.10;96603.00;;;;5089119;28;20192;-68
2021/07/26 06:05:16;;;;;;;12.80;10.37;;;19.20;99.90;19.10;96598.00;;;;5074414;28;20332;-68
2021/07/26 06:08:06;;;;;;;11.67;9.80;;;19.30;99.90;19.30;96591.00;;;;5073878;28;20239;-67
2021/07/26 06:10:56;;;;;;;9.97;8.97;;;19.40;99.90;19.60;96588.00;;;;5068042;28;20679;-68
2021/07/26 06:13:45;;;;;;;18.77;11.07;;;19.50;99.90;19.90;96589.00;;;;5075885;28;20191;-68
2021/07/26 06:16:34;;;;;;;10.73;9.23;;;19.70;99.90;20.10;96594.00;;;;5085088;28;20196;-68
2021/07/26 06:19:23;;;;;;;11.90;9.60;;;19.90;99.90;20.30;96597.00;;;;5068769;28;20204;-67
2021/07/26 06:22:12;;;;;;;13.67;9.60;;;20.10;99.90;20.60;96603.00;;;;5077523;28;20199;-71
2021/07/26 06:25:01;;;;;;;20.00;11.73;;;20.30;99.90;20.70;96611.00;;;;5081517;28;20674;-70
2021/07/26 06:27:52;;;;;;;10.80;9.03;;;20.50;99.90;20.70;96605.00;;;;5067511;28;20227;-69
2021/07/26 06:30:40;;;;;;;12.83;9.43;;;20.70;99.90;21.00;96612.00;;;;5068573;28;20234;-69
2021/07/26 06:33:29;;;;;;;12.50;9.77;;;20.90;99.90;21.20;96606.00;;;;5067388;28;20200;-70
2021/07/26 06:36:18;;;;;;;11.37;8.97;;;21.00;99.90;21.60;96607.00;;;;5082436;28;20230;-70
2021/07/26 06:39:09;;;;;;;10.60;9.57;;;21.30;99.90;21.80;96614.00;;;;5067834;28;20244;-70
2021/07/26 06:41:58;;;;;;;11.50;9.37;;;21.50;99.90;22.00;96613.00;;;;5067652;28;20583;-70
2021/07/26 06:44:48;;;;;;;10.97;8.97;;;21.70;99.90;22.10;96604.00;;;;5074883;28;20196;-69
2021/07/26 06:47:37;;;;;;;10.60;9.47;;;21.90;99.90;22.30;96611.00;;;;5084586;28;20695;-70
2021/07/26 06:50:26;;;;;;;12.53;8.73;;;22.10;99.90;22.40;96616.00;;;;5081335;28;20576;-69
2021/07/26 06:53:15;;;;;;;14.57;8.57;;;22.30;99.90;22.60;96627.00;;;;5079638;28;20728;-69
2021/07/26 06:56:06;;;;;;;12.57;8.03;;;22.50;99.90;22.70;96632.00;;;;5067501;28;20204;-69
2021/07/26 06:58:55;;;;;;;11.47;10.27;;;22.60;99.90;22.80;96628.00;;;;5067616;28;20227;-69
2021/07/26 07:01:45;;;;;;;8.63;7.77;;;22.70;99.90;22.90;96636.00;;;;5067187;28;20196;-69
2021/07/26 07:04:34;;;;;;;10.77;9.77;;;22.80;99.90;22.70;96640.00;;;;5086860;28;20211;-69
2021/07/26 07:07:22;;;;;;;10.33;9.23;;;22.80;99.90;22.70;96635.00;;;;5087137;28;20223;-69
2021/07/26 07:10:12;;;;;;;9.17;8.27;;;22.80;99.90;22.70;96642.00;;;;5087794;28;20225;-69
2021/07/26 07:13:01;;;;;;;12.57;8.33;;;22.90;99.90;23.00;96638.00;;;;5072989;28;20212;-69
2021/07/26 07:15:50;;;;;;;11.17;7.80;;;23.00;99.90;23.50;96631.00;;;;5067521;28;20200;-68
2021/07/26 07:18:40;;;;;;;9.73;8.13;;;23.20;99.90;23.60;96633.00;;;;5080321;28;20232;-68
2021/07/26 07:21:31;;;;;;;8.80;7.87;;;23.40;99.90;23.80;96632.00;;;;5066980;28;20208;-68
2021/07/26 07:24:20;;;;;;;9.60;8.67;;;23.60;99.90;24.10;96650.00;;;;5066953;28;20200;-68
2021/07/26 07:27:09;;;;;;;9.50;7.93;;;23.80;99.90;24.30;96638.00;;;;5066845;28;20230;-68
2021/07/26 07:29:57;;;;;;;13.27;8.60;;;23.90;99.90;24.20;96643.00;;;;5077976;28;20211;-69
2021/07/26 07:32:46;;;;;;;9.07;7.97;;;24.10;99.90;24.20;96634.00;;;;5096899;28;20203;-70
2021/07/26 07:35:36;;;;;;;9.13;7.57;;;24.20;99.90;24.60;96637.00;;;;5071014;28;20188;-70
2021/07/26 07:38:27;;;;;;;11.13;7.87;;;24.40;99.90;24.50;96645.00;;;;5084411;27;20219;-70
2021/07/26 07:41:17;;;;;;;10.97;8.53;;;24.40;99.90;24.80;96650.00;;;;5080149;28;20671;-70
2021/07/26 07:44:06;;;;;;;7.83;7.10;;;24.60;99.90;24.70;96655.00;;;;5065263;28;20267;-70
2021/07/26 07:46:55;;;;;;;9.20;8.20;;;24.60;99.90;24.80;96653.00;;;;5082908;28;20223;-70
2021/07/26 07:49:44;;;;;;;8.63;7.73;;;24.70;99.90;24.70;96649.00;;;;5078913;28;20216;-70
2021/07/26 07:52:34;;;;;;;9.43;8.53;;;24.70;99.90;25.30;96649.00;;;;5089517;28;20200;-70
2021/07/26 07:55:23;;;;;;;11.20;7.20;;;24.90;99.90;25.60;96658.00;;;;5070241;28;20201;-70
2021/07/26 07:58:12;;;;;;;10.50;7.67;;;25.10;99.90;25.60;96660.00;;;;5067061;28;20232;-69
2021/07/26 08:01:01;;;;;;;9.77;7.50;;;25.30;99.90;25.80;96658.00;;;;5066221;28;20210;-70
2021/07/26 08:03:50;;;;;;;10.87;8.00;;;25.40;99.90;25.90;96648.00;;;;5075843;28;20279;-71
2021/07/26 08:06:43;;;;;;;8.27;7.47;;;25.60;99.90;26.00;96654.00;;;;5065857;28;20268;-71
2021/07/26 08:09:33;;;;;;;9.33;7.63;;;25.80;99.90;26.10;96664.00;;;;5066191;28;20207;-70
2021/07/26 08:12:22;;;;;;;7.63;6.93;;;25.90;99.90;26.20;96650.00;;;;5066304;28;20238;-71
2021/07/26 08:15:12;;;;;;;9.17;7.47;;;26.00;99.90;26.30;96642.00;;;;5065531;28;20580;-70
2021/07/26 08:18:02;;;;;;;8.23;6.77;;;26.10;99.90;26.50;96653.00;;;;5073315;28;20271;-70
2021/07/26 08:20:52;;;;;;;8.73;7.60;;;26.20;99.90;26.60;96648.00;;;;5069748;28;20586;-71
2021/07/26 08:23:41;;;;;;;9.33;7.70;;;26.40;99.90;26.50;96650.00;;;;5070885;28;20200;-71
2021/07/26 08:26:31;;;;;;;9.37;7.63;;;26.50;99.90;26.40;96650.00;;;;5070768;28;20208;-71
2021/07/26 08:29:20;;;;;;;8.93;7.57;;;26.40;99.90;26.30;96644.00;;;;5071042;28;20209;-71
2021/07/26 08:32:09;;;;;;;8.50;7.60;;;26.40;99.90;26.60;96645.00;;;;5076958;28;20560;-72
2021/07/26 08:34:58;;;;;;;7.77;6.90;;;26.40;99.90;26.70;96640.00;;;;5086874;28;20204;-71
2021/07/26 08:37:47;;;;;;;9.93;9.03;;;26.50;99.90;27.00;96630.00;;;;5082155;28;20235;-71
2021/07/26 08:40:36;;;;;;;11.57;7.57;;;26.80;99.90;27.10;96635.00;;;;5088993;28;20200;-70
2021/07/26 08:43:28;;;;;;;8.03;7.23;;;26.80;99.90;27.00;96633.00;;;;5070679;28;20200;-70
2021/07/26 08:46:18;;;;;;;11.80;7.30;;;26.90;99.80;26.90;96630.00;;;;5076765;28;20217;-70
2021/07/26 08:49:09;;;;;;;10.20;7.40;;;27.00;99.30;27.10;96637.00;;;;5075057;28;20741;-70
2021/07/26 08:52:00;;;;;;;8.07;7.37;;;27.00;99.50;27.40;96637.00;;;;5080861;28;20220;-70
2021/07/26 08:54:51;;;;;;;8.60;7.00;;;27.10;99.90;27.60;96635.00;;;;5077848;28;20202;-70
2021/07/26 08:57:43;;;;;;;7.43;6.73;;;27.30;99.40;27.10;96629.00;;;;5080599;28;20226;-73
2021/07/26 09:00:34;;;;;;;9.57;7.07;;;27.40;97.90;27.10;96634.00;;;;5081121;28;20229;-75
2021/07/26 09:03:23;;;;;;;8.07;7.27;;;27.30;97.00;27.20;96640.00;;;;5085672;28;20228;-76
2021/07/26 09:06:11;;;;;;;9.23;7.00;;;27.30;95.70;27.40;96649.00;;;;5078004;28;20700;-75
2021/07/26 09:09:00;;;;;;;8.37;6.60;;;27.30;96.40;27.10;96625.00;;;;5083211;28;20493;-76
2021/07/26 09:11:49;;;;;;;11.50;7.10;;;27.20;96.70;27.70;96630.00;;;;5083476;28;20207;-73
2021/07/26 09:14:40;;;;;;;9.83;7.40;;;27.40;97.10;28.10;96625.00;;;;5085422;28;20208;-76
2021/07/26 09:17:42;;;;;;;7.70;6.97;;;27.60;97.90;28.20;96617.00;;;;5084165;28;20603;-75
2021/07/26 09:20:32;;;;;;;9.30;7.07;;;27.80;96.30;28.00;96621.00;;;;5071657;28;20232;-77
2021/07/26 09:23:21;;;;;;;7.67;6.90;;;27.90;94.10;28.10;96625.00;;;;5071704;28;20617;-75
2021/07/26 09:26:27;;;;;;;9.07;8.07;;;28.00;93.60;28.10;96624.00;;;;5092825;28;20209;-75
2021/07/26 09:29:30;;;;;;;11.00;8.20;;;28.10;93.20;28.60;96617.00;;;;5089456;28;20211;-73
2021/07/26 09:32:19;;;;;;;9.83;7.30;;;28.20;93.50;28.00;96617.00;;;;5100473;28;20209;-75
2021/07/26 09:35:10;;;;;;;8.23;7.37;;;28.30;91.40;28.30;96610.00;;;;5088714;28;20578;-75
2021/07/26 09:38:01;;;;;;;7.40;6.70;;;28.30;91.10;28.60;96621.00;;;;5086174;28;20222;-70
2021/07/26 09:40:50;;;;;;;8.37;6.93;;;28.40;91.40;29.10;96605.00;;;;5087513;28;20232;-77
2021/07/26 09:43:39;;;;;;;7.23;6.53;;;28.60;91.50;29.40;96607.00;;;;5087869;28;20217;-72
2021/07/26 09:46:30;;;;;;;8.40;7.23;;;28.80;91.40;28.80;96614.00;;;;5086126;28;20197;-75
2021/07/26 09:49:22;;;;;;;9.33;6.80;;;29.00;90.00;28.80;96611.00;;;;5086152;28;20214;-75
2021/07/26 09:52:12;;;;;;;9.60;7.87;;;28.90;87.80;28.30;96607.00;;;;5082132;28;20672;-74
2021/07/26 09:55:01;;;;;;;9.27;6.93;;;28.90;84.40;27.80;96600.00;;;;5074640;28;20580;-70
2021/07/26 09:57:50;;;;;;;7.07;6.20;;;28.70;84.80;27.60;96616.00;;;;5073542;28;20239;-70
2021/07/26 10:00:40;;;;;;;7.43;6.63;;;28.50;86.20;28.60;96591.00;;;;5089599;28;20219;-74
2021/07/26 10:03:29;;;;;;;7.67;6.80;;;28.40;84.40;29.10;96595.00;;;;5095201;28;20212;-71
2021/07/26 10:06:18;;;;;;;9.90;7.30;;;28.60;86.30;29.30;96597.00;;;;5080173;28;20474;-70
2021/07/26 10:09:09;;;;;;;9.27;6.77;;;28.80;86.20;28.30;96591.00;;;;5067726;28;20218;-71
2021/07/26 10:11:58;;;;;;;10.67;7.80;;;28.80;83.30;28.50;96581.00;;;;5068358;28;20261;-71
2021/07/26 10:14:50;;;;;;;9.17;7.70;;;28.80;79.70;29.20;96583.00;;;;5087271;28;20249;-74
2021/07/26 10:17:40;;;;;;;9.57;7.23;;;28.80;82.00;29.50;96573.00;;;;5087759;28;20221;-70
2021/07/26 10:20:31;;;;;;;7.97;7.17;;;29.00;81.20;29.50;96580.00;;;;5066502;28;20230;-72
2021/07/26 10:23:22;;;;;;;11.93;8.33;;;29.20;78.30;29.00;96589.00;;;;5067488;28;20206;-71
2021/07/26 10:26:15;;;;;;;9.10;6.77;;;29.10;77.80;29.60;96593.00;;;;5066730;28;20210;-72
2021/07/26 10:29:04;;;;;;;9.40;7.77;;;29.20;77.90;29.70;96587.00;;;;5087780;28;20210;-70
2021/07/26 10:31:53;;;;;;;7.73;6.93;;;29.30;78.30;29.30;96587.00;;;;5089667;28;20586;-70
2021/07/26 10:34:42;;;;;;;7.00;6.30;;;29.40;77.20;29.60;96597.00;;;;5068698;28;20248;-69
2021/07/26 10:37:51;;;;;;;9.07;7.10;;;29.50;76.70;29.80;96591.00;;;;5075676;28;20332;-72
2021/07/26 10:40:43;;;;;;;12.27;8.40;;;29.70;78.60;29.60;96589.00;;;;5066404;28;20218;-69
2021/07/26 10:43:55;;;;;;;10.00;7.73;;;29.70;77.30;30.30;96582.00;;;;5066602;28;20220;-71
2021/07/26 10:47:17;;;;;;;8.73;7.82;;;29.80;79.00;30.50;96568.00;;;;5066131;28;20203;-73
2021/07/26 10:50:16;;;;;;;8.02;7.22;;;30.10;73.40;30.70;96557.00;;;;5070171;28;20278;-66
2021/07/26 10:53:05;;;;;;;10.35;7.82;;;30.30;71.60;31.10;96558.00;;;;5076658;28;20675;-71
2021/07/26 10:56:05;;;;;;;9.97;7.23;;;30.40;74.50;31.60;96562.00;;;;5064770;28;20210;-71
2021/07/26 10:59:05;;;;;;;9.90;8.43;;;30.70;75.90;31.20;96552.00;;;;5074563;28;20197;-71
2021/07/26 11:02:04;;;;;;;8.57;7.78;;;30.80;72.70;31.70;96553.00;;;;5076998;28;20209;-70
2021/07/26 11:04:53;;;;;;;11.52;7.35;;;31.10;70.70;31.00;96553.00;;;;5076355;28;20335;-69
2021/07/26 11:07:42;;;;;;;9.32;7.45;;;31.20;71.50;31.40;96555.00;;;;5072826;28;20275;-69
2021/07/26 11:10:44;;;;;;;11.30;7.63;;;31.10;72.20;32.30;96562.00;;;;5075805;28;20214;-71
2021/07/26 11:14:12;;;;;;;8.88;7.97;;;31.30;72.10;31.50;96561.00;;;;5074686;28;20204;-69
2021/07/26 11:17:04;;;;;;;7.60;6.90;;;31.60;68.60;29.60;96543.00;;;;5075991;28;20225;-68
2021/07/26 11:19:58;;;;;;;9.38;7.60;;;31.30;66.50;29.00;96538.00;;;;5075237;28;20238;-70
2021/07/26 11:23:00;;;;;;;11.88;9.27;;;30.60;66.00;30.50;96542.00;;;;5070873;28;20203;-69
2021/07/26 11:25:50;;;;;;;7.95;7.15;;;30.40;68.30;31.60;96532.00;;;;5074784;28;20210;-69
2021/07/26 11:28:40;;;;;;;12.18;7.82;;;30.70;68.40;31.90;96543.00;;;;5076375;28;20232;-69
2021/07/26 11:31:34;;;;;;;11.02;8.00;;;;;32.70;96535.00;;;;5076155;28;20219;-71
2021/07/26 11:34:23;;;;;;;9.40;8.18;;;31.50;69.70;33.00;96529.00;;;;5074356;28;20210;-69
2021/07/26 11:37:14;;;;;;;9.05;7.40;;;31.90;68.70;33.20;96529.00;;;;5075237;28;21236;-70
2021/07/26 11:40:06;;;;;;;9.50;8.02;;;32.20;66.80;33.00;96523.00;;;;5072790;28;20226;-70
2021/07/26 11:42:55;;;;;;;8.45;7.65;;;32.40;66.20;32.10;96516.00;;;;5075116;28;20240;-70
2021/07/26 11:45:47;;;;;;;8.75;7.78;;;32.30;65.30;32.90;96542.00;;;;5075448;28;20258;-71
2021/07/26 11:48:37;;;;;;;8.20;7.40;;;32.30;64.90;30.90;96496.00;;;;5074874;28;20944;-69
2021/07/26 11:51:37;;;;;;;11.60;7.63;;;32.20;63.80;32.60;96503.00;;;;5071427;28;20271;-69
2021/07/26 11:54:30;;;;;;;8.35;7.50;;;32.20;65.70;33.60;96496.00;;;;5074164;28;20248;-69
2021/07/26 11:57:18;;;;;;;9.98;9.05;;;32.50;66.30;34.00;96522.00;;;;5074006;28;20225;-70
2021/07/26 12:00:09;;;;;;;8.88;7.50;;;32.90;67.20;33.40;96490.00;;;;5073034;28;20223;-69
2021/07/26 12:02:59;;;;;;;9.10;7.65;;;33.10;61.20;33.40;96484.00;;;;5074649;28;20207;-70
2021/07/26 12:05:50;;;;;;;9.05;7.50;;;33.10;61.50;33.50;96477.00;;;;5075311;28;20203;-70
2021/07/26 12:08:39;;;;;;;8.00;7.22;;;33.20;62.00;33.80;96480.00;;;;5074636;28;20222;-69
2021/07/26 12:11:34;;;;;;;10.15;7.38;;;33.30;62.80;34.50;96469.00;;;;5073395;28;20202;-70
2021/07/26 12:14:32;;;;;;;8.90;8.10;;;33.50;63.30;33.40;96473.00;;;;5073068;28;20211;-70
2021/07/26 12:17:25;;;;;;;10.02;8.52;;;33.50;59.60;34.50;96462.00;;;;5078399;28;20219;-69
2021/07/26 12:20:22;;;;;;;10.38;7.90;;;33.60;61.90;34.40;96479.00;;;;5072922;28;20686;-69
2021/07/26 12:23:15;;;;;;;9.05;8.15;;;33.90;59.70;35.40;96491.00;;;;5074770;28;20252;-70
2021/07/26 12:26:09;;;;;;;7.70;6.88;;;34.10;62.00;34.90;96480.00;;;;5075568;28;20207;-71
2021/07/26 12:28:58;;;;;;;9.38;6.82;;;34.10;60.80;35.60;96469.00;;;;5077106;28;20677;-69
2021/07/26 12:31:47;;;;;;;8.88;7.35;;;34.40;61.80;35.90;96470.00;;;;5074360;28;20259;-70
2021/07/26 12:34:37;;;;;;;12.45;7.43;;;34.80;60.20;36.50;96464.00;;;;5073944;28;20694;-71
2021/07/26 12:37:26;;;;;;;9.55;8.45;;;35.20;58.70;35.90;96451.00;;;;5073028;28;20713;-70